ルアンダ の空港の天気 - METARとTAF

ルアンダ国際空港 ( FNLU / LAD ) - アンゴラ ルアンダ
飛行場実況気象(Metar)
観測時間10/22 13:00 WAT (10/22 12:00 UTC)
風向・風速西南西 5m/s
視程10km以上
天気現象
全天の4割程度の雲 雲底高度 640m
気温29℃
湿度62%
気圧1012hPa
METARFNLU 221200Z 24009KT 9999 SCT021 BKN0080 29/21 Q1012 NOSIG
過去の天気等 Google飛行場航空写真 Wunderground天気予報

過去48時間のMETAR

飛行場予報(TAF)
発表時間: 10/22 12:00 WAT (10/22 11:00 UTC)
予報対象時間: 22日13時 WAT ~ 23日19時 WAT
風向・風速西南西 5m/s
視程10km以上
全天の4割程度の雲 雲底高度 610m
全天の8割程度の雲 雲底高度 1070m
23日5時 WAT ~ 23日10時 WAT に一時的に
風向・風速南 3m/s
視程8000m
天気現象霧雨
全天の8割程度の雲 雲底高度 610m
少しの積乱雲 雲底高度 910m
TAF FNLU 221100Z 2212/2318 24009KT 9999 SCT020 BKN035
TEMPO 2304/2309 18006KT 8000 DZ BKN020 FEW030CB